Time;durP1;ratioP1;P1;durP2;ratioP2;P2;SDS_P1;SDS_P2;PMS_P1;PMS_P2;Temp;Humidity;BMP_temperature;BMP_pressure;BME280_temperature;BME280_humidity;BME280_pressure;Samples;Min_cycle;Max_cycle;Signal;HPM_P1;HPM_P2
2022/01/04 00:00:09;;;;;;;1.15;0.50;;;10.60;99.90;;;;;;4973693;28;20027;-71
2022/01/04 00:02:34;;;;;;;3.30;1.10;;;10.60;99.90;;;;;;4972506;28;20550;-71
2022/01/04 00:05:00;;;;;;;4.82;1.00;;;10.60;99.90;;;;;;4973857;28;20030;-71
2022/01/04 00:07:26;;;;;;;1.52;0.85;;;10.60;99.90;;;;;;4973543;28;20391;-71
2022/01/04 00:09:53;;;;;;;1.67;0.65;;;10.60;99.90;;;;;;4972627;28;20476;-71
2022/01/04 00:15:04;;;;;;;1.25;0.68;;;10.50;99.90;;;;;;4973272;28;20134;-71
2022/01/04 00:17:31;;;;;;;0.70;0.50;;;10.60;99.90;;;;;;4972721;28;20038;-71
2022/01/04 00:19:56;;;;;;;2.25;0.90;;;10.50;99.90;;;;;;4973301;28;20039;-71
2022/01/04 00:22:22;;;;;;;1.70;0.80;;;10.50;99.90;;;;;;4973320;28;20078;-71
2022/01/04 00:24:48;;;;;;;1.90;0.65;;;10.50;99.90;;;;;;4967246;28;20030;-71
2022/01/04 00:27:13;;;;;;;3.45;0.70;;;10.40;99.90;;;;;;4973301;28;20041;-71
2022/01/04 00:29:39;;;;;;;1.08;0.70;;;10.40;99.90;;;;;;4972279;28;20088;-71
2022/01/04 00:32:05;;;;;;;2.00;0.73;;;10.40;99.90;;;;;;4973119;28;20033;-71
2022/01/04 00:34:31;;;;;;;3.55;0.70;;;10.30;99.90;;;;;;4972131;28;20030;-71
2022/01/04 00:36:57;;;;;;;2.72;0.98;;;10.30;99.90;;;;;;4951981;28;20081;-71
2022/01/04 00:39:23;;;;;;;4.00;0.65;;;10.30;99.90;;;;;;4964393;28;20114;-71
2022/01/04 00:41:48;;;;;;;1.45;0.70;;;10.30;99.90;;;;;;4966386;28;20145;-71
2022/01/04 00:44:14;;;;;;;1.52;0.60;;;10.20;99.90;;;;;;4961099;28;20034;-71
2022/01/04 00:46:40;;;;;;;2.92;0.55;;;10.30;99.90;;;;;;4965148;28;20031;-70
2022/01/04 00:49:11;;;;;;;3.22;0.68;;;10.20;99.90;;;;;;4966739;28;20024;-70
2022/01/04 00:51:38;;;;;;;1.88;0.60;;;10.20;99.90;;;;;;4962848;28;20035;-70
2022/01/04 00:54:04;;;;;;;1.42;0.65;;;10.20;99.90;;;;;;4971573;28;20119;-71
2022/01/04 00:56:30;;;;;;;1.35;0.57;;;10.20;99.90;;;;;;4971277;28;20019;-71
2022/01/04 00:58:56;;;;;;;2.45;0.60;;;10.20;99.90;;;;;;4968720;28;20487;-71
2022/01/04 01:01:22;;;;;;;1.42;0.60;;;10.20;99.90;;;;;;4970407;28;20543;-72
2022/01/04 01:03:47;;;;;;;3.22;0.73;;;10.10;99.90;;;;;;4971430;28;20208;-71
2022/01/04 01:06:14;;;;;;;2.45;0.68;;;10.10;99.90;;;;;;4971430;28;20428;-71
2022/01/04 01:08:40;;;;;;;1.88;0.80;;;10.10;99.90;;;;;;4968281;28;20034;-71
2022/01/04 01:11:07;;;;;;;2.90;1.00;;;10.20;99.90;;;;;;4971778;28;20023;-71
2022/01/04 01:13:33;;;;;;;3.70;0.63;;;10.10;99.90;;;;;;4969872;28;20082;-70
2022/01/04 01:15:59;;;;;;;0.45;0.45;;;10.10;99.90;;;;;;4975567;28;20042;-70
2022/01/04 01:18:24;;;;;;;2.60;0.70;;;10.00;99.90;;;;;;4975441;28;20027;-70
2022/01/04 01:20:51;;;;;;;1.95;0.90;;;10.00;99.90;;;;;;4973729;28;20019;-70
2022/01/04 01:23:17;;;;;;;2.00;0.80;;;10.00;99.90;;;;;;4975301;28;20117;-71
2022/01/04 01:25:43;;;;;;;3.40;0.77;;;10.00;99.90;;;;;;4974545;28;20441;-71
2022/01/04 01:28:08;;;;;;;4.32;1.00;;;9.90;99.90;;;;;;4974914;28;20065;-71
2022/01/04 01:30:37;;;;;;;2.58;0.80;;;9.90;99.90;;;;;;4974309;28;20026;-70
2022/01/04 01:33:04;;;;;;;1.52;0.88;;;9.90;99.90;;;;;;4956628;28;20444;-71
2022/01/04 01:35:30;;;;;;;3.13;1.17;;;9.90;99.90;;;;;;4974440;28;20034;-72
2022/01/04 01:37:57;;;;;;;0.70;0.55;;;9.90;99.90;;;;;;4974976;28;20074;-71
2022/01/04 01:40:24;;;;;;;4.53;1.30;;;9.80;99.90;;;;;;4975908;28;20065;-71
2022/01/04 01:42:50;;;;;;;1.38;0.70;;;9.80;99.90;;;;;;4973631;28;20179;-72
2022/01/04 01:45:16;;;;;;;2.55;0.98;;;9.80;99.90;;;;;;4974953;28;20498;-71
2022/01/04 01:47:44;;;;;;;1.08;0.85;;;9.70;99.90;;;;;;4973680;28;20035;-70
2022/01/04 01:50:11;;;;;;;1.88;0.93;;;9.70;99.90;;;;;;4974334;28;20034;-72
2022/01/04 01:52:41;;;;;;;1.50;0.85;;;9.70;99.90;;;;;;4973804;28;20056;-71
2022/01/04 01:55:09;;;;;;;2.17;0.82;;;9.70;99.90;;;;;;4974308;28;20030;-71
2022/01/04 01:57:35;;;;;;;1.63;0.68;;;9.60;99.90;;;;;;4973272;28;20037;-71
2022/01/04 02:00:01;;;;;;;1.80;0.77;;;9.60;99.90;;;;;;4974061;28;20022;-71
2022/01/04 02:02:27;;;;;;;3.10;0.88;;;9.60;99.90;;;;;;4974057;28;20026;-70
2022/01/04 02:04:52;;;;;;;1.80;1.30;;;9.50;99.90;;;;;;4972756;28;20461;-70
2022/01/04 02:07:20;;;;;;;1.55;0.73;;;9.50;99.90;;;;;;4974670;28;20034;-70
2022/01/04 02:09:55;;;;;;;4.15;1.05;;;9.40;99.90;;;;;;4973006;28;20463;-70
2022/01/04 02:12:22;;;;;;;1.27;0.90;;;9.40;99.90;;;;;;4974895;28;20108;-70
2022/01/04 02:14:51;;;;;;;2.75;1.30;;;9.30;99.90;;;;;;4973819;28;20073;-70
2022/01/04 02:17:17;;;;;;;1.45;0.80;;;9.30;99.90;;;;;;4975406;28;20038;-70
2022/01/04 02:19:43;;;;;;;2.15;1.00;;;9.30;99.90;;;;;;4973942;28;20054;-70
2022/01/04 02:22:08;;;;;;;1.35;0.70;;;9.40;99.90;;;;;;4975065;28;20027;-70
2022/01/04 02:24:34;;;;;;;1.45;0.90;;;9.40;99.90;;;;;;4974704;28;20146;-70
2022/01/04 02:27:00;;;;;;;1.85;1.58;;;9.30;99.90;;;;;;4975473;28;20105;-70
2022/01/04 02:29:27;;;;;;;1.63;0.93;;;9.30;99.90;;;;;;4975232;28;20031;-72
2022/01/04 02:31:53;;;;;;;2.10;0.75;;;9.40;99.90;;;;;;4974641;28;20034;-71
2022/01/04 02:34:19;;;;;;;2.65;0.90;;;9.40;99.90;;;;;;4975330;28;20031;-71
2022/01/04 02:36:45;;;;;;;1.98;1.13;;;9.50;99.90;;;;;;4974518;28;20027;-70
2022/01/04 02:39:11;;;;;;;2.10;1.00;;;9.50;99.90;;;;;;4975458;28;20129;-70
2022/01/04 02:41:37;;;;;;;3.05;1.15;;;9.50;99.90;;;;;;4974498;28;20019;-71
2022/01/04 02:44:03;;;;;;;3.25;0.98;;;9.50;99.90;;;;;;4975368;28;20052;-71
2022/01/04 02:46:29;;;;;;;2.25;0.95;;;9.50;99.90;;;;;;4975001;28;20035;-71
2022/01/04 02:48:55;;;;;;;2.67;1.05;;;9.50;99.90;;;;;;4974864;28;20117;-70
2022/01/04 02:51:23;;;;;;;1.65;1.00;;;9.40;99.90;;;;;;4975539;28;20114;-71
2022/01/04 02:53:49;;;;;;;2.25;1.20;;;9.50;99.90;;;;;;4975552;28;20153;-71
2022/01/04 02:56:15;;;;;;;3.95;1.20;;;9.40;99.90;;;;;;4974871;28;20544;-71
2022/01/04 02:58:41;;;;;;;3.25;1.25;;;9.50;99.90;;;;;;4974085;28;20027;-70
2022/01/04 03:01:06;;;;;;;1.45;0.93;;;9.50;99.90;;;;;;4974971;28;20066;-71
2022/01/04 03:03:33;;;;;;;2.10;1.20;;;9.60;99.90;;;;;;4974207;28;20491;-70
2022/01/04 03:05:58;;;;;;;3.28;1.40;;;9.60;99.90;;;;;;4974405;28;20038;-71
2022/01/04 03:08:24;;;;;;;2.92;0.93;;;9.60;99.90;;;;;;4974800;28;20023;-71
2022/01/04 03:10:50;;;;;;;2.95;0.95;;;9.70;99.90;;;;;;4973894;28;20096;-70
2022/01/04 03:13:16;;;;;;;1.30;1.17;;;9.60;99.90;;;;;;4974418;28;20033;-69
2022/01/04 03:15:46;;;;;;;1.67;1.10;;;9.60;99.90;;;;;;4972665;28;20038;-70
2022/01/04 03:18:11;;;;;;;2.07;1.07;;;9.60;99.90;;;;;;4974642;28;20038;-71
2022/01/04 03:20:37;;;;;;;3.40;1.20;;;9.70;99.90;;;;;;4973884;28;20033;-70
2022/01/04 03:23:03;;;;;;;1.90;1.20;;;9.70;99.90;;;;;;4976721;28;20027;-70
2022/01/04 03:25:29;;;;;;;3.13;1.30;;;9.80;99.90;;;;;;4976782;28;20027;-71
2022/01/04 03:27:54;;;;;;;5.82;2.13;;;9.80;99.90;;;;;;4973775;28;20081;-71
2022/01/04 03:30:21;;;;;;;1.08;0.98;;;9.70;99.90;;;;;;4974068;28;20376;-71
2022/01/04 03:32:47;;;;;;;1.27;0.95;;;9.70;99.90;;;;;;4973731;28;20031;-71
2022/01/04 03:35:12;;;;;;;2.38;1.25;;;9.60;99.90;;;;;;4974992;28;20109;-71
2022/01/04 03:37:38;;;;;;;1.27;0.90;;;9.60;99.90;;;;;;4973925;28;20442;-70
2022/01/04 03:40:05;;;;;;;3.22;0.93;;;9.60;99.90;;;;;;4979005;28;20023;-70
2022/01/04 03:42:31;;;;;;;2.55;1.05;;;9.60;99.90;;;;;;4976765;28;20035;-70
2022/01/04 03:44:57;;;;;;;1.52;1.17;;;9.70;99.90;;;;;;4977303;28;20038;-70
2022/01/04 03:47:22;;;;;;;2.80;1.52;;;9.70;99.90;;;;;;4977619;28;20031;-70
2022/01/04 03:49:48;;;;;;;2.38;1.00;;;9.70;99.90;;;;;;4975137;28;20031;-70
2022/01/04 03:52:14;;;;;;;1.17;1.05;;;9.60;99.90;;;;;;4975788;28;20023;-70
2022/01/04 03:54:39;;;;;;;2.10;1.30;;;9.60;99.90;;;;;;4975216;28;20026;-70
2022/01/04 03:57:05;;;;;;;2.40;1.40;;;9.60;99.90;;;;;;4976129;28;20041;-70
2022/01/04 03:59:31;;;;;;;2.88;0.98;;;9.60;99.90;;;;;;4975572;28;20468;-70
2022/01/04 04:01:57;;;;;;;2.03;1.05;;;9.60;99.90;;;;;;4974373;28;20082;-70
2022/01/04 04:04:22;;;;;;;1.58;0.90;;;9.70;99.90;;;;;;4975133;28;20460;-70
2022/01/04 04:06:48;;;;;;;1.45;0.75;;;9.90;99.90;;;;;;4973470;28;20030;-70
2022/01/04 04:09:14;;;;;;;1.85;0.90;;;9.90;99.90;;;;;;4973927;28;20424;-70
2022/01/04 04:11:41;;;;;;;1.95;0.85;;;10.00;99.90;;;;;;4956004;28;20113;-70
2022/01/04 04:14:06;;;;;;;1.58;0.63;;;10.10;99.90;;;;;;4973503;28;20098;-70
2022/01/04 04:16:33;;;;;;;1.00;0.70;;;10.10;99.90;;;;;;4973346;28;20035;-70
2022/01/04 04:18:59;;;;;;;3.30;0.98;;;10.10;99.90;;;;;;4973017;28;20031;-70
2022/01/04 04:21:25;;;;;;;2.30;0.80;;;10.20;99.90;;;;;;4956004;28;20483;-70
2022/01/04 04:23:50;;;;;;;1.50;0.90;;;10.20;99.90;;;;;;4972317;28;20502;-70
2022/01/04 04:26:16;;;;;;;1.30;0.73;;;10.20;99.90;;;;;;4973033;28;20487;-70
2022/01/04 04:28:42;;;;;;;1.40;0.88;;;10.20;99.90;;;;;;4972292;28;20054;-70
2022/01/04 04:31:08;;;;;;;2.25;1.00;;;10.20;99.90;;;;;;4973060;28;20034;-70
2022/01/04 04:33:33;;;;;;;3.25;0.90;;;10.20;99.90;;;;;;4973375;28;20034;-70
2022/01/04 04:35:59;;;;;;;1.98;0.70;;;10.20;99.90;;;;;;4972919;28;20077;-70
2022/01/04 04:38:25;;;;;;;1.40;0.95;;;10.30;99.90;;;;;;4973112;28;20121;-71
2022/01/04 04:40:50;;;;;;;2.00;0.68;;;10.30;99.90;;;;;;4972455;28;20049;-71
2022/01/04 04:43:16;;;;;;;0.98;0.77;;;10.20;99.90;;;;;;4973118;28;20022;-71
2022/01/04 04:45:42;;;;;;;3.28;1.00;;;10.30;99.90;;;;;;4972274;28;20035;-70
2022/01/04 04:48:07;;;;;;;1.38;0.50;;;10.20;99.90;;;;;;4973060;28;20095;-71
2022/01/04 04:50:33;;;;;;;1.83;0.60;;;10.20;99.90;;;;;;4972675;28;20421;-71
2022/01/04 04:52:59;;;;;;;1.02;0.90;;;10.30;99.90;;;;;;4972500;28;20035;-73
2022/01/04 04:55:25;;;;;;;2.42;0.80;;;10.30;99.90;;;;;;4973109;28;20086;-72
2022/01/04 04:57:51;;;;;;;3.00;0.70;;;10.30;99.90;;;;;;4972279;28;20207;-70
2022/01/04 05:00:16;;;;;;;0.93;0.60;;;10.30;99.90;;;;;;4973163;28;20106;-71
2022/01/04 05:02:43;;;;;;;2.17;0.80;;;10.30;99.90;;;;;;4972294;28;20023;-71
2022/01/04 05:05:09;;;;;;;1.45;0.70;;;10.40;99.90;;;;;;4955608;28;20114;-73
2022/01/04 05:07:35;;;;;;;0.98;0.80;;;10.40;99.90;;;;;;4972479;28;20135;-72
2022/01/04 05:10:05;;;;;;;1.38;0.88;;;10.40;99.90;;;;;;4972616;28;20126;-73
2022/01/04 05:12:31;;;;;;;2.08;0.88;;;10.40;99.90;;;;;;4972759;28;20069;-73
2022/01/04 05:14:57;;;;;;;1.85;0.70;;;10.40;99.90;;;;;;4972197;28;20102;-73
2022/01/04 05:17:23;;;;;;;1.30;0.55;;;10.40;99.90;;;;;;4972769;28;20030;-73
2022/01/04 05:19:48;;;;;;;1.67;0.90;;;10.30;99.90;;;;;;4972262;28;20503;-73
2022/01/04 05:22:14;;;;;;;1.58;0.93;;;10.30;99.90;;;;;;4972890;28;20121;-71
2022/01/04 05:24:40;;;;;;;4.07;1.38;;;10.30;99.90;;;;;;4972124;28;20027;-71
2022/01/04 05:27:06;;;;;;;3.42;0.80;;;10.20;99.90;;;;;;4972385;28;20026;-72
2022/01/04 05:29:31;;;;;;;2.60;0.85;;;10.20;99.90;;;;;;4972746;28;20550;-71
2022/01/04 05:31:57;;;;;;;2.47;1.00;;;10.20;99.90;;;;;;4971934;28;20034;-71
2022/01/04 05:34:23;;;;;;;1.77;1.00;;;10.10;99.90;;;;;;4972467;28;20034;-72
2022/01/04 05:36:49;;;;;;;1.10;0.85;;;10.10;99.90;;;;;;4971818;28;20041;-71
2022/01/04 05:39:15;;;;;;;3.47;1.05;;;10.10;99.90;;;;;;4973970;28;20019;-71
2022/01/04 05:41:41;;;;;;;1.00;0.77;;;10.00;99.90;;;;;;4975421;28;20085;-71
2022/01/04 05:44:06;;;;;;;1.35;0.80;;;9.90;99.90;;;;;;4976437;28;20035;-71
2022/01/04 05:46:32;;;;;;;2.92;1.00;;;9.90;99.90;;;;;;4976259;28;20027;-71
2022/01/04 05:48:58;;;;;;;2.17;0.90;;;9.90;99.90;;;;;;4975497;28;20049;-71
2022/01/04 05:51:23;;;;;;;3.53;0.90;;;9.80;99.90;;;;;;4976183;28;20030;-73
2022/01/04 05:53:49;;;;;;;1.48;0.70;;;9.90;99.90;;;;;;4975054;28;20023;-72
2022/01/04 05:56:14;;;;;;;5.60;1.25;;;9.90;99.90;;;;;;4975860;28;20035;-71
2022/01/04 05:58:40;;;;;;;2.83;0.90;;;9.80;99.90;;;;;;4957955;28;20448;-70
2022/01/04 06:01:06;;;;;;;2.03;0.90;;;9.80;99.90;;;;;;4975970;28;20380;-71
2022/01/04 06:03:31;;;;;;;2.28;1.63;;;9.80;99.90;;;;;;4975304;28;20035;-72
2022/01/04 06:05:59;;;;;;;1.58;0.90;;;9.70;99.90;;;;;;4974905;28;20076;-71
2022/01/04 06:08:30;;;;;;;1.27;1.10;;;9.70;99.90;;;;;;4975942;28;20030;-71
2022/01/04 06:10:56;;;;;;;2.13;0.90;;;9.70;99.90;;;;;;4975163;28;20027;-70
2022/01/04 06:16:07;;;;;;;1.48;0.98;;;9.70;99.90;;;;;;4961370;28;20046;-71
2022/01/04 06:18:32;;;;;;;1.92;1.02;;;9.70;99.90;;;;;;4974182;28;20031;-71
2022/01/04 06:20:58;;;;;;;2.53;1.17;;;9.70;99.90;;;;;;4974807;28;20498;-70
2022/01/04 06:23:24;;;;;;;2.45;1.05;;;9.70;99.90;;;;;;4974886;28;20030;-71
2022/01/04 06:25:53;;;;;;;1.75;1.25;;;9.70;99.90;;;;;;4973008;28;20027;-71
2022/01/04 06:28:19;;;;;;;1.77;0.90;;;9.70;99.90;;;;;;4975532;28;20046;-71
2022/01/04 06:30:45;;;;;;;0.90;0.90;;;9.60;99.90;;;;;;4974441;28;20037;-71
2022/01/04 06:33:11;;;;;;;3.90;0.80;;;9.60;99.90;;;;;;4975219;28;20030;-72
2022/01/04 06:35:37;;;;;;;1.33;1.00;;;9.60;99.90;;;;;;4975348;28;20484;-71
2022/01/04 06:38:04;;;;;;;1.40;0.70;;;9.60;99.90;;;;;;4973624;28;20041;-71
2022/01/04 06:40:30;;;;;;;2.20;1.08;;;9.60;99.90;;;;;;4975250;28;20026;-72
2022/01/04 06:42:56;;;;;;;0.80;0.75;;;9.60;99.90;;;;;;4973006;28;20031;-71
2022/01/04 06:45:21;;;;;;;0.68;0.68;;;9.60;99.90;;;;;;4974945;28;20041;-72
2022/01/04 06:47:47;;;;;;;1.05;0.77;;;9.70;99.90;;;;;;4973600;28;20039;-71
2022/01/04 06:50:15;;;;;;;1.38;1.13;;;9.70;99.90;;;;;;4974640;28;20469;-71
2022/01/04 06:52:41;;;;;;;1.52;0.80;;;9.70;99.90;;;;;;4974163;28;20099;-71
2022/01/04 06:55:07;;;;;;;2.55;1.00;;;9.70;99.90;;;;;;4991628;28;20022;-72
2022/01/04 06:57:33;;;;;;;2.05;0.80;;;9.70;99.90;;;;;;4975989;28;20121;-71
2022/01/04 06:59:59;;;;;;;2.42;0.70;;;9.70;99.90;;;;;;4992848;28;20154;-71
2022/01/04 07:02:24;;;;;;;1.60;0.70;;;9.80;99.90;;;;;;4994017;28;20022;-71
2022/01/04 07:04:50;;;;;;;1.23;0.80;;;9.80;99.90;;;;;;4992965;28;20033;-71
2022/01/04 07:07:16;;;;;;;1.40;1.10;;;9.80;99.90;;;;;;4994013;28;20042;-71
2022/01/04 07:09:42;;;;;;;1.38;0.73;;;9.90;99.90;;;;;;4993487;28;20037;-70
2022/01/04 07:12:09;;;;;;;1.77;0.70;;;9.80;99.90;;;;;;4994186;28;20112;-70
2022/01/04 07:14:35;;;;;;;0.75;0.60;;;9.80;99.90;;;;;;4993516;28;20488;-71
2022/01/04 07:17:00;;;;;;;1.85;0.75;;;9.80;99.90;;;;;;4994199;28;20073;-71
2022/01/04 07:19:26;;;;;;;1.90;0.70;;;9.80;99.90;;;;;;4976254;28;20118;-70
2022/01/04 07:21:52;;;;;;;1.13;0.80;;;9.80;99.90;;;;;;4992546;28;20034;-72
2022/01/04 07:24:18;;;;;;;2.00;0.90;;;9.80;99.90;;;;;;4978305;28;20027;-72
2022/01/04 07:26:43;;;;;;;0.90;0.70;;;9.80;99.90;;;;;;4974646;28;20038;-70
2022/01/04 07:29:09;;;;;;;4.53;1.45;;;9.80;99.90;;;;;;4974356;28;20453;-70
2022/01/04 07:31:35;;;;;;;2.28;0.90;;;9.80;99.90;;;;;;4974286;28;20361;-72
2022/01/04 07:34:01;;;;;;;4.07;0.95;;;9.80;99.90;;;;;;4972828;28;20030;-71
2022/01/04 07:36:29;;;;;;;4.30;1.00;;;9.80;99.90;;;;;;4973347;28;20026;-72
2022/01/04 07:38:55;;;;;;;0.82;0.80;;;9.80;99.90;;;;;;4973521;28;20069;-70
2022/01/04 07:41:21;;;;;;;1.08;0.77;;;9.80;99.90;;;;;;4974107;28;20369;-74
2022/01/04 07:43:47;;;;;;;1.27;0.70;;;9.90;99.90;;;;;;4975656;28;20027;-71
2022/01/04 07:46:12;;;;;;;1.90;0.90;;;9.90;99.90;;;;;;4979992;28;20076;-76
2022/01/04 07:48:38;;;;;;;1.08;0.55;;;9.90;99.90;;;;;;4976140;28;20095;-71
2022/01/04 07:51:04;;;;;;;3.25;1.30;;;10.00;99.90;;;;;;4973555;28;20396;-72
2022/01/04 07:53:30;;;;;;;1.92;1.27;;;10.20;99.90;;;;;;4978365;28;20022;-72
2022/01/04 07:55:56;;;;;;;4.50;0.73;;;10.30;99.90;;;;;;4992219;28;20176;-72
2022/01/04 07:58:23;;;;;;;2.00;0.68;;;10.40;99.90;;;;;;4992357;28;20117;-70
2022/01/04 08:00:49;;;;;;;2.85;0.77;;;10.50;99.90;;;;;;4992480;28;20105;-70
2022/01/04 08:03:15;;;;;;;3.40;0.60;;;10.70;99.90;;;;;;4992751;28;20068;-72
2022/01/04 08:05:40;;;;;;;1.13;0.40;;;10.80;99.90;;;;;;4992859;28;20416;-72
2022/01/04 08:08:06;;;;;;;2.28;0.80;;;10.90;99.90;;;;;;4992472;28;20038;-70
2022/01/04 08:10:32;;;;;;;1.08;0.65;;;11.00;99.90;;;;;;4993082;28;20460;-72
2022/01/04 08:12:58;;;;;;;2.55;0.52;;;11.10;99.90;;;;;;4992974;28;20034;-71
2022/01/04 08:15:25;;;;;;;1.83;0.60;;;11.20;99.90;;;;;;4998182;28;20042;-71
2022/01/04 08:17:51;;;;;;;0.88;0.70;;;11.30;99.90;;;;;;4992274;28;20526;-71
2022/01/04 08:20:18;;;;;;;0.93;0.50;;;11.40;99.90;;;;;;4993694;28;20022;-71
2022/01/04 08:22:44;;;;;;;1.20;0.70;;;11.40;99.90;;;;;;4992981;28;20027;-72
2022/01/04 08:25:11;;;;;;;0.90;0.70;;;11.30;99.90;;;;;;4992673;28;20431;-72
2022/01/04 08:27:39;;;;;;;0.50;0.50;;;11.40;99.90;;;;;;4994102;28;20081;-71
2022/01/04 08:30:07;;;;;;;0.90;0.80;;;11.40;99.90;;;;;;4991661;28;20098;-72
2022/01/04 08:32:33;;;;;;;0.52;0.50;;;11.50;99.90;;;;;;4992916;28;20359;-72
2022/01/04 08:34:59;;;;;;;1.98;0.70;;;11.50;99.90;;;;;;4981543;28;20041;-72
2022/01/04 08:37:26;;;;;;;1.00;0.80;;;11.60;99.90;;;;;;4970809;28;20039;-72
2022/01/04 08:39:52;;;;;;;2.65;0.60;;;11.60;99.90;;;;;;4955010;28;20054;-72
2022/01/04 08:42:22;;;;;;;1.92;0.57;;;11.70;99.90;;;;;;4972030;28;20031;-72
2022/01/04 08:44:51;;;;;;;2.63;0.97;;;11.70;99.90;;;;;;4971411;28;20039;-72
2022/01/04 08:47:17;;;;;;;0.73;0.40;;;11.70;99.90;;;;;;4972540;28;20035;-72
2022/01/04 08:49:42;;;;;;;1.77;0.77;;;11.80;99.90;;;;;;4972445;28;20042;-73
2022/01/04 08:52:09;;;;;;;1.27;0.60;;;11.80;99.90;;;;;;4971519;28;20035;-72
2022/01/04 08:54:35;;;;;;;2.58;0.60;;;11.80;99.90;;;;;;4972917;28;20110;-72
2022/01/04 08:57:01;;;;;;;0.60;0.50;;;11.90;99.90;;;;;;4971809;28;20031;-73
2022/01/04 08:59:28;;;;;;;2.00;0.50;;;11.80;99.90;;;;;;4972770;28;20038;-73
2022/01/04 09:01:55;;;;;;;1.65;0.50;;;11.80;99.90;;;;;;4971644;28;20042;-72
2022/01/04 09:04:21;;;;;;;1.02;0.50;;;11.90;99.90;;;;;;4972277;28;20368;-72
2022/01/04 09:06:50;;;;;;;3.20;0.73;;;12.00;99.90;;;;;;4986034;28;20142;-71
2022/01/04 09:09:16;;;;;;;1.30;0.70;;;12.10;99.90;;;;;;4990298;28;20026;-72
2022/01/04 09:11:42;;;;;;;1.58;0.60;;;12.10;99.90;;;;;;4979695;28;20506;-72
2022/01/04 09:19:22;;;;;;;2.17;0.63;;;12.20;99.90;;;;;;4976196;28;20161;-72
2022/01/04 09:21:49;;;;;;;1.42;0.70;;;12.20;99.90;;;;;;4975214;28;20039;-72
2022/01/04 09:24:14;;;;;;;2.13;0.70;;;12.10;99.90;;;;;;4975721;28;20038;-72
2022/01/04 09:26:40;;;;;;;4.60;0.90;;;12.20;99.90;;;;;;4976169;28;20019;-73
2022/01/04 09:29:06;;;;;;;2.65;0.68;;;12.10;99.90;;;;;;4968752;28;20074;-72
2022/01/04 09:31:32;;;;;;;1.30;0.77;;;12.10;99.90;;;;;;4991878;28;20120;-73
2022/01/04 09:33:59;;;;;;;4.32;0.90;;;12.00;99.90;;;;;;4983090;28;20380;-72
2022/01/04 09:36:32;;;;;;;1.08;0.57;;;12.00;99.90;;;;;;4973518;28;20027;-72
2022/01/04 09:38:58;;;;;;;2.92;0.70;;;11.80;99.90;;;;;;4974599;28;20031;-72
2022/01/04 09:41:24;;;;;;;1.15;0.50;;;11.70;99.90;;;;;;4975357;28;20023;-72
2022/01/04 09:43:51;;;;;;;2.42;0.95;;;11.70;99.90;;;;;;4974882;28;20053;-72
2022/01/04 09:46:16;;;;;;;1.83;1.10;;;11.60;99.90;;;;;;4972879;28;20046;-71
2022/01/04 09:48:42;;;;;;;5.10;0.70;;;11.60;99.90;;;;;;4975703;28;20043;-73
2022/01/04 09:51:10;;;;;;;3.88;0.85;;;11.60;99.90;;;;;;4974570;28;20082;-72
2022/01/04 09:53:36;;;;;;;1.20;0.77;;;11.50;99.90;;;;;;4975419;28;20034;-72
2022/01/04 09:56:02;;;;;;;1.92;0.70;;;11.60;99.90;;;;;;4974712;28;20053;-72
2022/01/04 09:58:28;;;;;;;1.08;0.50;;;11.70;99.90;;;;;;4975241;28;20105;-72
2022/01/04 10:00:54;;;;;;;1.65;0.90;;;11.60;99.90;;;;;;4974731;28;20031;-72
2022/01/04 10:03:25;;;;;;;3.42;0.90;;;11.60;99.90;;;;;;4974296;28;20033;-72
2022/01/04 10:06:01;;;;;;;1.45;0.85;;;11.70;99.90;;;;;;4973643;28;20031;-71
2022/01/04 10:08:27;;;;;;;1.10;0.70;;;11.70;99.90;;;;;;4974492;28;20045;-71
2022/01/04 10:11:04;;;;;;;1.75;0.63;;;11.80;99.90;;;;;;4974068;28;20117;-71
2022/01/04 10:13:30;;;;;;;3.50;0.82;;;11.90;99.90;;;;;;4974518;28;20050;-72
2022/01/04 10:15:57;;;;;;;2.95;0.77;;;11.90;99.90;;;;;;4973825;28;20030;-71
2022/01/04 10:18:28;;;;;;;3.13;0.80;;;12.00;99.90;;;;;;4974908;28;20097;-72
2022/01/04 10:21:02;;;;;;;3.70;1.15;;;11.90;99.90;;;;;;4973891;28;20031;-71
2022/01/04 10:23:29;;;;;;;1.52;0.65;;;12.00;99.90;;;;;;4974508;28;20023;-72
2022/01/04 10:26:04;;;;;;;2.33;1.00;;;12.00;99.90;;;;;;4973300;28;20195;-71
2022/01/04 10:28:32;;;;;;;1.50;0.80;;;12.00;99.90;;;;;;4974575;28;20045;-71
2022/01/04 10:31:03;;;;;;;4.47;1.05;;;12.00;99.90;;;;;;4973343;28;20118;-71
2022/01/04 10:33:31;;;;;;;1.05;0.50;;;12.00;99.90;;;;;;4973494;28;20099;-71
2022/01/04 10:35:59;;;;;;;3.40;0.75;;;12.10;99.90;;;;;;4972060;28;20023;-72
2022/01/04 10:38:27;;;;;;;1.30;0.77;;;12.20;99.90;;;;;;4974647;28;20031;-72
2022/01/04 10:41:00;;;;;;;4.00;1.05;;;12.30;99.90;;;;;;4973967;28;20031;-72
2022/01/04 10:43:29;;;;;;;1.73;1.15;;;12.30;99.90;;;;;;4974194;28;20026;-72
2022/01/04 10:45:56;;;;;;;2.83;1.10;;;12.30;99.90;;;;;;4973447;28;20031;-71
2022/01/04 10:48:25;;;;;;;1.90;1.05;;;12.40;99.90;;;;;;4974515;28;20118;-72
2022/01/04 10:50:56;;;;;;;1.88;1.00;;;12.40;99.90;;;;;;4973900;28;20037;-71
2022/01/04 10:53:26;;;;;;;2.28;1.08;;;12.40;99.90;;;;;;4974225;28;20030;-72
2022/01/04 10:55:56;;;;;;;;;;;12.40;99.90;;;;;;4974230;28;20035;-71
2022/01/04 10:58:29;;;;;;;3.80;0.82;;;12.40;99.90;;;;;;4974105;28;19906;-72
2022/01/04 11:01:16;;;;;;;5.70;1.42;;;12.30;99.90;;;;;;4973415;28;20031;-72
2022/01/04 11:03:45;;;;;;;3.28;1.20;;;12.30;99.90;;;;;;4972628;28;20042;-72
2022/01/04 11:06:13;;;;;;;2.08;0.93;;;12.30;99.90;;;;;;4971917;28;20039;-72
2022/01/04 11:08:41;;;;;;;6.70;2.13;;;12.20;99.90;;;;;;4973825;28;20128;-72
2022/01/04 11:11:07;;;;;;;3.50;1.98;;;12.20;99.90;;;;;;4973064;28;20063;-72
2022/01/04 11:13:32;;;;;;;7.20;2.40;;;12.20;99.90;;;;;;4973715;28;20089;-72
2022/01/04 11:16:01;;;;;;;3.55;1.05;;;12.30;99.90;;;;;;4955559;28;20038;-72
2022/01/04 11:18:27;;;;;;;1.58;1.10;;;12.40;99.90;;;;;;4973737;28;20038;-72
2022/01/04 11:20:54;;;;;;;2.22;1.20;;;12.40;99.90;;;;;;4970494;28;20041;-71
2022/01/04 11:23:28;;;;;;;8.50;1.20;;;12.50;99.90;;;;;;4973227;28;20031;-71
2022/01/04 11:25:55;;;;;;;3.17;0.80;;;12.60;99.90;;;;;;4973090;28;20065;-71
2022/01/04 11:28:22;;;;;;;1.17;0.80;;;12.60;99.90;;;;;;4972287;28;20387;-71
2022/01/04 11:31:06;;;;;;;3.10;1.00;;;12.60;99.90;;;;;;4973643;28;20027;-71
2022/01/04 11:33:49;;;;;;;2.65;1.40;;;12.50;99.90;;;;;;4972922;28;20109;-71
2022/01/04 11:36:15;;;;;;;1.92;1.08;;;12.40;99.90;;;;;;4970852;28;20019;-72
2022/01/04 11:38:41;;;;;;;2.60;0.88;;;12.30;99.90;;;;;;4973651;28;20494;-72
2022/01/04 11:41:07;;;;;;;1.77;1.00;;;12.20;99.90;;;;;;4972459;28;20067;-72
2022/01/04 11:43:41;;;;;;;4.43;1.88;;;12.10;99.90;;;;;;4973287;28;20061;-72
2022/01/04 11:46:07;;;;;;;1.95;1.25;;;12.10;99.90;;;;;;4972722;28;20126;-71
2022/01/04 11:48:33;;;;;;;2.10;1.05;;;12.00;99.90;;;;;;4973552;28;20129;-71
2022/01/04 11:51:32;;;;;;;2.17;1.10;;;12.00;99.90;;;;;;4972628;28;20113;-71
2022/01/04 11:54:20;;;;;;;5.85;1.20;;;12.00;99.90;;;;;;4972496;28;20031;-71
2022/01/04 11:56:49;;;;;;;2.05;1.48;;;12.00;99.90;;;;;;4973247;28;20033;-71
2022/01/04 11:59:20;;;;;;;2.28;1.17;;;11.90;99.90;;;;;;4972563;28;20034;-71
2022/01/04 12:01:45;;;;;;;1.65;1.35;;;11.90;99.90;;;;;;4973330;28;20026;-70
2022/01/04 12:04:11;;;;;;;1.73;1.15;;;11.90;99.90;;;;;;4971172;28;20129;-71
2022/01/04 12:06:42;;;;;;;5.80;1.33;;;11.80;99.90;;;;;;4971310;28;20039;-71
2022/01/04 12:09:27;;;;;;;3.03;1.38;;;11.80;99.90;;;;;;4972262;28;20047;-71
2022/01/04 12:11:52;;;;;;;2.83;1.80;;;11.80;99.90;;;;;;4973052;28;20027;-71
2022/01/04 12:14:27;;;;;;;4.45;1.23;;;11.80;99.90;;;;;;4971922;28;20047;-70
2022/01/04 12:17:04;;;;;;;5.03;1.42;;;11.80;99.90;;;;;;4972990;28;20078;-71
2022/01/04 12:19:47;;;;;;;5.35;1.70;;;11.80;99.90;;;;;;4972962;28;20065;-71
2022/01/04 12:22:13;;;;;;;4.38;1.52;;;11.80;99.90;;;;;;4971946;28;20499;-71
2022/01/04 12:24:44;;;;;;;3.95;1.50;;;11.70;99.90;;;;;;4973075;28;20118;-71
2022/01/04 12:27:11;;;;;;;2.30;1.58;;;11.80;99.90;;;;;;4972027;28;20523;-71
2022/01/04 12:29:38;;;;;;;3.00;1.25;;;11.70;99.90;;;;;;4973083;28;20026;-71
2022/01/04 12:32:07;;;;;;;1.90;1.25;;;11.80;99.90;;;;;;4971984;28;20058;-71
2022/01/04 12:35:03;;;;;;;1.60;1.30;;;11.70;99.90;;;;;;4971284;28;20045;-71
2022/01/04 12:37:29;;;;;;;4.55;1.25;;;11.70;99.90;;;;;;4971504;28;20077;-70
2022/01/04 12:39:57;;;;;;;2.83;1.42;;;11.60;99.90;;;;;;4973393;28;20034;-72
2022/01/04 12:42:23;;;;;;;2.90;1.85;;;11.60;99.90;;;;;;4972838;28;20027;-73
2022/01/04 12:44:51;;;;;;;3.72;1.40;;;11.60;99.90;;;;;;4972505;28;20379;-71
2022/01/04 12:47:18;;;;;;;3.72;1.35;;;11.50;99.90;;;;;;4963596;28;20396;-69
2022/01/04 12:49:44;;;;;;;2.50;1.58;;;11.60;99.90;;;;;;4974095;28;20035;-69
2022/01/04 12:52:10;;;;;;;2.15;1.30;;;11.60;99.90;;;;;;4972368;28;20102;-69
2022/01/04 12:54:39;;;;;;;2.60;1.38;;;11.60;99.90;;;;;;4972300;28;20034;-70
2022/01/04 12:57:12;;;;;;;3.10;1.35;;;11.60;99.90;;;;;;4971647;28;20027;-69
2022/01/04 12:59:49;;;;;;;4.72;1.48;;;11.60;99.90;;;;;;4972702;28;20027;-71